createdAt,value
2022-11-05T00:00:32.857Z,24.23
2022-11-05T00:03:17.780Z,29.10
2022-11-05T00:06:04.219Z,24.07
2022-11-05T00:08:49.633Z,21.27
2022-11-05T00:11:18.442Z,23.87
2022-11-05T00:14:05.603Z,17.10
2022-11-05T00:16:45.688Z,18.27
2022-11-05T00:19:15.035Z,21.07
2022-11-05T00:22:00.875Z,23.70
2022-11-05T00:24:46.553Z,17.23
2022-11-05T00:27:15.044Z,19.97
2022-11-05T00:29:44.365Z,23.60
2022-11-05T00:32:12.320Z,25.53
2022-11-05T00:34:40.336Z,26.73
2022-11-05T00:37:08.276Z,22.03
2022-11-05T00:39:36.374Z,24.30
2022-11-05T00:42:21.579Z,21.23
2022-11-05T00:45:03.035Z,22.17
2022-11-05T00:47:49.647Z,20.37
2022-11-05T00:50:17.798Z,18.17
2022-11-05T00:52:58.098Z,21.33
2022-11-05T00:55:29.410Z,23.53
2022-11-05T00:57:58.556Z,21.10
2022-11-05T01:00:30.159Z,24.77
2022-11-05T01:03:02.706Z,24.37
2022-11-05T01:05:32.096Z,22.30
2022-11-05T01:08:00.334Z,27.03
2022-11-05T01:10:28.488Z,20.33
2022-11-05T01:13:00.096Z,24.10
2022-11-05T01:15:29.613Z,23.10
2022-11-05T01:17:57.712Z,22.80
2022-11-05T01:20:25.803Z,22.97
2022-11-05T01:22:54.084Z,22.30
2022-11-05T01:25:22.191Z,23.27
2022-11-05T01:27:50.189Z,21.23
2022-11-05T01:30:18.442Z,21.97
2022-11-05T01:32:47.808Z,20.97
2022-11-05T01:35:18.177Z,23.53
2022-11-05T01:37:46.645Z,22.63
2022-11-05T01:40:16.540Z,22.33
2022-11-05T01:42:44.930Z,23.90
2022-11-05T01:45:16.311Z,23.13
2022-11-05T01:47:58.720Z,19.63
2022-11-05T01:50:42.308Z,24.00
2022-11-05T01:53:20.850Z,19.73
2022-11-05T01:55:55.907Z,26.33
2022-11-05T01:58:29.990Z,23.57
2022-11-05T02:00:58.308Z,22.57
2022-11-05T02:03:28.690Z,20.13
2022-11-05T02:05:59.817Z,23.20
2022-11-05T02:08:41.584Z,24.10
2022-11-05T02:11:10.127Z,21.97
2022-11-05T02:13:38.214Z,20.17
2022-11-05T02:16:13.088Z,23.83
2022-11-05T02:18:52.663Z,24.70
2022-11-05T02:21:46.685Z,21.83
2022-11-05T02:24:40.527Z,23.83
2022-11-05T02:27:15.591Z,22.10
2022-11-05T02:30:05.072Z,22.43
2022-11-05T02:32:58.233Z,27.83
2022-11-05T02:35:43.211Z,22.07
2022-11-05T02:38:17.870Z,24.17
2022-11-05T02:40:55.892Z,24.20
2022-11-05T02:43:32.034Z,22.10
2022-11-05T02:46:04.472Z,22.37
2022-11-05T02:48:45.742Z,24.10
2022-11-05T02:51:21.980Z,22.50
2022-11-05T02:53:54.876Z,26.63
2022-11-05T02:56:26.647Z,28.73
2022-11-05T02:58:54.537Z,28.03
2022-11-05T03:01:22.645Z,25.30
2022-11-05T03:03:54.084Z,25.43
2022-11-05T03:06:49.441Z,23.50
2022-11-05T03:09:50.659Z,23.80
2022-11-05T03:12:28.025Z,28.53
2022-11-05T03:15:03.146Z,25.67
2022-11-05T03:17:41.897Z,23.23
2022-11-05T03:20:19.485Z,25.73
2022-11-05T03:22:52.819Z,23.47
2022-11-05T03:25:25.190Z,25.40
2022-11-05T03:27:58.149Z,26.23
2022-11-05T03:30:26.966Z,32.43
2022-11-05T03:32:59.981Z,25.80
2022-11-05T03:35:35.551Z,26.63
2022-11-05T03:38:07.299Z,27.73
2022-11-05T03:40:37.687Z,29.57
2022-11-05T03:43:09.675Z,24.20
2022-11-05T03:45:42.001Z,24.13
2022-11-05T03:48:13.799Z,21.30
2022-11-05T03:50:50.224Z,24.43
2022-11-05T03:53:23.599Z,23.93
2022-11-05T03:55:57.691Z,25.80
2022-11-05T03:58:27.311Z,29.97
2022-11-05T04:00:55.391Z,32.83
2022-11-05T04:03:23.425Z,27.50
2022-11-05T04:06:09.010Z,25.03
2022-11-05T04:08:54.458Z,27.57
2022-11-05T04:11:40.164Z,25.70
2022-11-05T04:14:08.164Z,32.47
2022-11-05T04:16:53.739Z,29.37
2022-11-05T04:19:42.520Z,33.93
2022-11-05T04:22:29.316Z,28.23
2022-11-05T04:24:57.401Z,33.90
2022-11-05T04:27:25.425Z,28.30
2022-11-05T04:30:10.809Z,33.67
2022-11-05T04:32:38.809Z,33.83
2022-11-05T04:35:07.168Z,35.27
2022-11-05T04:37:36.518Z,28.53
2022-11-05T04:40:04.709Z,28.80
2022-11-05T04:42:32.699Z,30.27
2022-11-05T04:45:00.725Z,33.63
2022-11-05T04:47:28.705Z,33.37
2022-11-05T04:49:56.736Z,32.93
2022-11-05T04:52:24.793Z,31.00
2022-11-05T04:54:54.181Z,34.17
2022-11-05T04:57:22.236Z,35.63
2022-11-05T04:59:50.498Z,36.33
2022-11-05T05:02:18.639Z,33.57
2022-11-05T05:04:46.712Z,37.57
2022-11-05T05:07:14.759Z,36.07
2022-11-05T05:09:42.810Z,36.20
2022-11-05T05:12:12.106Z,38.50
2022-11-05T05:14:40.446Z,35.57
2022-11-05T05:17:08.450Z,33.03
2022-11-05T05:19:56.576Z,43.63
2022-11-05T05:22:23.508Z,33.70
2022-11-05T05:24:52.919Z,31.63
2022-11-05T05:27:23.408Z,33.97
2022-11-05T05:29:51.689Z,37.57
2022-11-05T05:32:19.811Z,32.67
2022-11-05T05:34:48.136Z,37.93
2022-11-05T05:37:16.484Z,38.23
2022-11-05T05:39:46.093Z,42.27
2022-11-05T05:42:14.554Z,36.57
2022-11-05T05:44:44.060Z,35.03
2022-11-05T05:47:12.186Z,35.73
2022-11-05T05:49:40.307Z,36.53
2022-11-05T05:52:08.386Z,37.40
2022-11-05T05:54:42.283Z,37.97
2022-11-05T05:57:11.298Z,34.07
2022-11-05T05:59:39.327Z,38.77
2022-11-05T06:02:08.827Z,43.80
2022-11-05T06:04:37.000Z,36.30
2022-11-05T06:07:05.234Z,36.10
2022-11-05T06:09:33.448Z,38.53
2022-11-05T06:12:01.465Z,40.53
2022-11-05T06:14:29.538Z,39.50
2022-11-05T06:16:57.525Z,36.40
2022-11-05T06:19:27.196Z,44.30
2022-11-05T06:21:55.133Z,39.47
2022-11-05T06:24:23.141Z,39.50
2022-11-05T06:26:51.198Z,40.90
2022-11-05T06:29:19.441Z,43.13
2022-11-05T06:31:47.476Z,41.93
2022-11-05T06:34:15.465Z,39.97
2022-11-05T06:36:45.047Z,44.90
2022-11-05T06:39:13.717Z,43.97
2022-11-05T06:42:17.261Z,40.77
2022-11-05T06:44:30.405Z,42.87
2022-11-05T06:46:58.470Z,43.90
2022-11-05T06:49:26.594Z,38.90
2022-11-05T06:51:55.969Z,44.20
2022-11-05T06:54:24.371Z,43.40
2022-11-05T06:56:52.492Z,44.37
2022-11-05T06:59:20.647Z,44.43
2022-11-05T07:01:48.837Z,43.17
2022-11-05T07:04:17.032Z,41.03
2022-11-05T07:06:45.037Z,52.10
2022-11-05T07:09:14.540Z,42.77
2022-11-05T07:11:42.609Z,46.30
2022-11-05T07:14:10.714Z,42.23
2022-11-05T07:16:39.341Z,47.20
2022-11-05T07:19:07.500Z,43.37
2022-11-05T07:21:35.492Z,41.97
2022-11-05T07:24:03.828Z,42.47
2022-11-05T07:26:34.681Z,43.97
2022-11-05T07:29:03.305Z,50.17
2022-11-05T07:31:31.390Z,43.47
2022-11-05T07:33:59.526Z,41.77
2022-11-05T07:36:27.560Z,44.90
2022-11-05T07:39:00.057Z,48.53
2022-11-05T07:41:29.303Z,45.57
2022-11-05T07:43:58.746Z,43.10
2022-11-05T07:46:26.745Z,43.13
2022-11-05T07:48:54.702Z,43.13
2022-11-05T07:51:23.087Z,44.47
2022-11-05T07:53:51.056Z,43.80
2022-11-05T07:56:19.162Z,46.67
2022-11-05T07:58:47.276Z,50.50
2022-11-05T08:01:16.750Z,45.37
2022-11-05T08:03:44.999Z,47.73
2022-11-05T08:06:16.690Z,46.30
2022-11-05T08:08:44.650Z,55.27
2022-11-05T08:11:13.363Z,51.97
2022-11-05T08:13:42.760Z,48.87
2022-11-05T08:16:11.119Z,44.93
2022-11-05T08:18:40.480Z,49.43
2022-11-05T08:21:09.492Z,49.60
2022-11-05T08:23:38.780Z,42.87
2022-11-05T08:26:07.140Z,49.27
2022-11-05T08:28:35.144Z,47.27
2022-11-05T08:31:03.053Z,51.03
2022-11-05T08:33:31.415Z,45.90
2022-11-05T08:36:04.584Z,49.13
2022-11-05T08:38:32.519Z,49.67
2022-11-05T08:41:00.507Z,55.07
2022-11-05T08:43:28.457Z,52.10
2022-11-05T08:45:56.400Z,51.37
2022-11-05T08:48:24.440Z,50.80
2022-11-05T08:50:52.475Z,51.33
2022-11-05T08:53:22.025Z,48.77
2022-11-05T08:55:51.449Z,46.83
2022-11-05T08:58:20.725Z,52.03
2022-11-05T09:00:50.504Z,45.03
2022-11-05T09:03:19.000Z,44.70
2022-11-05T09:05:47.244Z,44.03
2022-11-05T09:08:16.863Z,48.43
2022-11-05T09:10:47.726Z,46.77
2022-11-05T09:13:19.320Z,48.60
2022-11-05T09:15:48.727Z,50.13
2022-11-05T09:18:18.030Z,47.97
2022-11-05T09:20:46.471Z,49.20
2022-11-05T09:23:15.871Z,44.73
2022-11-05T09:25:44.022Z,47.63
2022-11-05T09:28:17.069Z,46.13
2022-11-05T09:30:46.500Z,43.33
2022-11-05T09:33:14.928Z,43.97
2022-11-05T09:35:43.935Z,48.73
2022-11-05T09:38:12.581Z,55.13
2022-11-05T09:40:46.519Z,49.17
2022-11-05T09:43:26.092Z,59.10
2022-11-05T09:46:00.395Z,56.17
2022-11-05T09:48:31.890Z,48.27
2022-11-05T09:51:00.785Z,46.90
2022-11-05T09:53:29.853Z,45.30
2022-11-05T09:56:00.066Z,49.00
2022-11-05T09:58:38.863Z,41.83
2022-11-05T10:01:12.310Z,40.57
2022-11-05T10:03:46.775Z,44.37
2022-11-05T10:06:26.522Z,44.33
2022-11-05T10:09:01.961Z,53.50
2022-11-05T10:11:38.642Z,46.53
2022-11-05T10:14:16.276Z,50.77
2022-11-05T10:16:49.759Z,53.90
2022-11-05T10:19:23.986Z,58.17
2022-11-05T10:22:10.701Z,57.73
2022-11-05T10:24:41.809Z,59.87
2022-11-05T10:27:15.587Z,50.57
2022-11-05T10:29:45.564Z,53.73
2022-11-05T10:32:21.529Z,47.00
2022-11-05T10:34:50.952Z,42.87
2022-11-05T10:37:20.905Z,45.93
2022-11-05T10:39:50.391Z,41.50
2022-11-05T10:42:35.937Z,46.20
2022-11-05T10:45:14.678Z,45.10
2022-11-05T10:47:53.350Z,51.47
2022-11-05T10:50:25.300Z,48.87
2022-11-05T10:52:59.091Z,50.83
2022-11-05T10:55:30.230Z,51.13
2022-11-05T10:58:10.213Z,48.20
2022-11-05T11:00:39.994Z,49.17
2022-11-05T11:03:36.872Z,45.67
2022-11-05T11:06:07.719Z,48.90
2022-11-05T11:08:37.653Z,47.57
2022-11-05T11:11:08.922Z,46.73
2022-11-05T11:14:00.389Z,47.67
2022-11-05T11:16:34.710Z,45.07
2022-11-05T11:19:04.105Z,50.63
2022-11-05T11:21:33.841Z,49.00
2022-11-05T11:24:03.828Z,47.00
2022-11-05T11:26:34.478Z,52.80
2022-11-05T11:29:09.417Z,50.53
2022-11-05T11:31:41.466Z,58.37
2022-11-05T11:34:17.694Z,45.83
2022-11-05T11:36:49.007Z,48.50
2022-11-05T11:39:20.587Z,54.27
2022-11-05T11:41:53.656Z,51.40
2022-11-05T11:44:27.089Z,48.17
2022-11-05T11:46:58.668Z,58.47
2022-11-05T11:49:40.550Z,53.43
2022-11-05T11:52:15.252Z,52.87
2022-11-05T11:54:43.730Z,49.80
2022-11-05T11:57:26.014Z,58.73
2022-11-05T12:00:08.236Z,56.77
2022-11-05T12:03:05.137Z,62.83
2022-11-05T12:05:40.133Z,55.07
2022-11-05T12:08:21.938Z,55.07
2022-11-05T12:10:58.915Z,56.23
2022-11-05T12:13:47.843Z,55.87
2022-11-05T12:16:25.076Z,54.20
2022-11-05T12:19:03.429Z,61.30
2022-11-05T12:21:52.649Z,59.37
2022-11-05T12:24:47.530Z,54.50
2022-11-05T12:27:27.626Z,52.13
2022-11-05T12:30:02.717Z,57.33
2022-11-05T12:32:48.284Z,59.97
2022-11-05T12:35:50.921Z,61.13
2022-11-05T12:38:32.636Z,59.70
2022-11-05T12:41:12.977Z,66.60
2022-11-05T12:43:54.397Z,75.07
2022-11-05T12:46:30.358Z,59.00
2022-11-05T12:49:32.835Z,56.17
2022-11-05T12:52:19.163Z,57.50
2022-11-05T12:55:01.088Z,59.17
2022-11-05T12:57:32.478Z,59.13
2022-11-05T13:00:08.249Z,64.80
2022-11-05T13:02:40.879Z,62.03
2022-11-05T13:05:19.428Z,62.33
2022-11-05T13:07:54.399Z,73.50
2022-11-05T13:10:29.161Z,65.10
2022-11-05T13:13:03.457Z,61.40
2022-11-05T13:15:36.338Z,70.23
2022-11-05T13:18:07.573Z,73.63
2022-11-05T13:20:39.741Z,71.17
2022-11-05T13:23:18.741Z,73.77
2022-11-05T13:25:53.620Z,75.47
2022-11-05T13:28:32.819Z,68.10
2022-11-05T13:31:05.393Z,74.33
2022-11-05T13:33:35.625Z,79.73
2022-11-05T13:36:26.875Z,69.90
2022-11-05T13:39:01.111Z,74.00
2022-11-05T13:41:39.213Z,72.13
2022-11-05T13:44:24.519Z,82.77
2022-11-05T13:47:09.825Z,82.13
2022-11-05T13:50:14.180Z,77.90
2022-11-05T13:52:57.746Z,73.40
2022-11-05T13:55:43.922Z,67.80
2022-11-05T13:58:28.600Z,68.33
2022-11-05T14:01:08.557Z,72.40
2022-11-05T14:03:39.404Z,68.90
2022-11-05T14:06:10.798Z,74.53
2022-11-05T14:08:44.542Z,108.20
2022-11-05T14:11:22.967Z,100.37
2022-11-05T14:13:56.215Z,77.17
2022-11-05T14:16:25.915Z,73.47
2022-11-05T14:18:56.590Z,68.43
2022-11-05T14:21:50.231Z,63.97
2022-11-05T14:24:43.135Z,67.87
2022-11-05T14:27:47.166Z,73.60
2022-11-05T14:30:45.041Z,75.53
2022-11-05T14:33:30.489Z,74.33
2022-11-05T14:36:43.353Z,72.37
2022-11-05T14:39:30.034Z,68.73
2022-11-05T14:42:05.638Z,68.33
2022-11-05T14:44:56.385Z,67.37
2022-11-05T14:47:27.190Z,69.53
2022-11-05T14:49:59.745Z,71.37
2022-11-05T14:52:28.147Z,73.40
2022-11-05T14:54:58.016Z,73.07
2022-11-05T14:58:20.307Z,72.17
2022-11-05T15:00:51.012Z,71.53
2022-11-05T15:04:00.458Z,64.00
2022-11-05T15:06:34.824Z,66.90
2022-11-05T15:09:15.694Z,73.50
2022-11-05T15:11:52.148Z,75.37
2022-11-05T15:14:24.468Z,79.17
2022-11-05T15:16:57.087Z,72.80
2022-11-05T15:19:30.126Z,73.37
2022-11-05T15:21:59.339Z,74.83
2022-11-05T15:24:29.204Z,75.27
2022-11-05T15:27:03.705Z,82.77
2022-11-05T15:29:35.165Z,81.07
2022-11-05T15:32:06.165Z,90.03
2022-11-05T15:34:35.888Z,94.47
2022-11-05T15:37:20.694Z,79.47
2022-11-05T15:39:50.470Z,86.87
2022-11-05T15:42:22.145Z,92.10
2022-11-05T15:44:54.541Z,96.67
2022-11-05T15:47:27.608Z,84.87
2022-11-05T15:49:58.880Z,88.43
2022-11-05T15:52:34.758Z,94.33
2022-11-05T15:55:23.724Z,93.73
2022-11-05T15:57:55.512Z,93.30
2022-11-05T16:00:25.731Z,86.30
2022-11-05T16:02:59.474Z,84.33
2022-11-05T16:05:30.199Z,97.17
2022-11-05T16:08:00.170Z,95.27
2022-11-05T16:10:31.593Z,89.27
2022-11-05T16:13:23.229Z,102.90
2022-11-05T16:15:55.790Z,96.07
2022-11-05T16:18:31.371Z,102.90
2022-11-05T16:21:04.678Z,97.47
2022-11-05T16:23:45.146Z,108.50
2022-11-05T16:27:01.263Z,102.50
2022-11-05T16:29:29.036Z,81.17
2022-11-05T16:31:59.008Z,89.77
2022-11-05T16:34:33.244Z,83.07
2022-11-05T16:37:01.739Z,84.00
2022-11-05T16:39:29.859Z,76.70
2022-11-05T16:41:58.767Z,84.17
2022-11-05T16:44:27.370Z,75.67
2022-11-05T16:46:58.764Z,82.97
2022-11-05T16:49:28.630Z,79.83
2022-11-05T16:51:56.667Z,86.90
2022-11-05T16:54:26.713Z,74.87
2022-11-05T16:56:54.870Z,73.20
2022-11-05T16:59:22.914Z,84.00
2022-11-05T17:01:55.616Z,83.77
2022-11-05T17:04:24.132Z,94.80
2022-11-05T17:06:53.435Z,89.73
2022-11-05T17:09:21.494Z,90.30
2022-11-05T17:11:53.443Z,74.73
2022-11-05T17:14:21.487Z,75.40
2022-11-05T17:16:49.854Z,80.77
2022-11-05T17:19:18.018Z,89.70
2022-11-05T17:21:46.123Z,81.70
2022-11-05T17:24:15.899Z,87.47
2022-11-05T17:26:43.993Z,76.27
2022-11-05T17:29:12.020Z,88.37
2022-11-05T17:31:42.902Z,101.43
2022-11-05T17:34:12.881Z,87.47
2022-11-05T17:36:41.384Z,84.23
2022-11-05T17:39:11.042Z,90.40
2022-11-05T17:41:50.253Z,78.13
2022-11-05T17:44:18.361Z,83.30
2022-11-05T17:46:49.800Z,87.03
2022-11-05T17:49:18.367Z,81.13
2022-11-05T17:51:49.369Z,79.83
2022-11-05T17:54:19.814Z,84.33
2022-11-05T17:56:50.633Z,85.23
2022-11-05T17:59:21.077Z,82.50
2022-11-05T18:01:49.233Z,87.50
2022-11-05T18:04:17.659Z,78.33
2022-11-05T18:06:45.747Z,81.30
2022-11-05T18:09:14.653Z,82.23
2022-11-05T18:11:43.883Z,84.87
2022-11-05T18:14:13.410Z,81.97
2022-11-05T18:16:41.565Z,73.23
2022-11-05T18:19:09.610Z,71.33
2022-11-05T18:21:37.720Z,69.23
2022-11-05T18:24:07.317Z,68.17
2022-11-05T18:26:36.289Z,64.27
2022-11-05T18:29:06.340Z,60.03
2022-11-05T18:31:35.870Z,56.20
2022-11-05T18:34:04.543Z,52.53
2022-11-05T18:36:33.949Z,47.13
2022-11-05T18:39:03.234Z,46.83
2022-11-05T18:41:31.808Z,47.70
2022-11-05T18:44:01.071Z,46.07
2022-11-05T18:46:56.679Z,44.10
2022-11-05T18:49:19.535Z,37.47
2022-11-05T18:51:47.517Z,40.93
2022-11-05T18:54:15.633Z,34.83
2022-11-05T18:56:46.064Z,32.07
2022-11-05T18:59:35.777Z,34.60
2022-11-05T19:02:03.970Z,32.13
2022-11-05T19:04:33.624Z,37.10
2022-11-05T19:07:04.772Z,32.97
2022-11-05T19:09:33.929Z,32.27
2022-11-05T19:12:02.121Z,33.93
2022-11-05T19:14:31.001Z,36.97
2022-11-05T19:16:59.406Z,32.67
2022-11-05T19:19:28.103Z,31.30
2022-11-05T19:21:57.982Z,31.63
2022-11-05T19:24:26.092Z,33.03
2022-11-05T19:26:54.264Z,29.53
2022-11-05T19:29:22.773Z,31.20
2022-11-05T19:31:50.913Z,32.10
2022-11-05T19:34:20.593Z,30.60
2022-11-05T19:36:48.821Z,31.90
2022-11-05T19:39:18.299Z,40.87
2022-11-05T19:41:48.187Z,38.03
2022-11-05T19:44:16.513Z,29.10
2022-11-05T19:46:45.099Z,37.43
2022-11-05T19:49:13.952Z,32.83
2022-11-05T19:51:42.176Z,38.50
2022-11-05T19:54:10.310Z,34.47
2022-11-05T19:56:40.101Z,38.03
2022-11-05T19:59:08.749Z,38.87
2022-11-05T20:01:38.135Z,40.13
2022-11-05T20:04:06.891Z,45.07
2022-11-05T20:06:40.503Z,37.47
2022-11-05T20:09:25.804Z,36.73
2022-11-05T20:11:56.694Z,38.40
2022-11-05T20:14:26.287Z,43.97
2022-11-05T20:16:55.196Z,47.10
2022-11-05T20:19:24.320Z,42.63
2022-11-05T20:21:53.137Z,44.60
2022-11-05T20:24:25.340Z,44.47
2022-11-05T20:26:56.959Z,52.90
2022-11-05T20:29:33.689Z,47.50
2022-11-05T20:32:03.933Z,47.97
2022-11-05T20:34:33.264Z,46.07
2022-11-05T20:37:01.657Z,39.67
2022-11-05T20:39:30.112Z,46.50
2022-11-05T20:42:00.651Z,36.40
2022-11-05T20:44:29.103Z,43.77
2022-11-05T20:46:57.268Z,42.83
2022-11-05T20:49:26.061Z,41.70
2022-11-05T20:51:54.781Z,39.57
2022-11-05T20:54:23.207Z,35.17
2022-11-05T20:56:52.313Z,40.53
2022-11-05T20:59:22.268Z,45.00
2022-11-05T21:01:51.949Z,37.83
2022-11-05T21:04:20.514Z,38.70
2022-11-05T21:06:48.723Z,34.00
2022-11-05T21:09:17.147Z,41.30
2022-11-05T21:12:05.471Z,42.70
2022-11-05T21:14:34.985Z,35.53
2022-11-05T21:17:03.322Z,39.80
2022-11-05T21:19:32.466Z,37.67
2022-11-05T21:22:00.837Z,41.97
2022-11-05T21:24:29.016Z,38.63
2022-11-05T21:26:59.274Z,39.03
2022-11-05T21:29:27.391Z,39.70
2022-11-05T21:31:56.640Z,34.73
2022-11-05T21:34:25.237Z,35.07
2022-11-05T21:36:53.366Z,37.40
2022-11-05T21:39:21.404Z,40.70
2022-11-05T21:41:49.421Z,36.60
2022-11-05T21:44:17.481Z,39.13
2022-11-05T21:46:45.473Z,36.83
2022-11-05T21:49:15.554Z,37.13
2022-11-05T21:52:00.974Z,37.63
2022-11-05T21:54:46.349Z,34.77
2022-11-05T21:57:33.913Z,34.90
2022-11-05T22:00:02.003Z,33.87
2022-11-05T22:02:32.494Z,37.53
2022-11-05T22:05:02.575Z,38.60
2022-11-05T22:07:33.408Z,37.03
2022-11-05T22:10:02.451Z,38.87
2022-11-05T22:12:31.991Z,37.20
2022-11-05T22:15:00.077Z,38.43
2022-11-05T22:17:28.636Z,35.23
2022-11-05T22:19:56.651Z,37.13
2022-11-05T22:22:26.096Z,36.87
2022-11-05T22:24:54.235Z,30.63
2022-11-05T22:27:22.576Z,27.13
2022-11-05T22:29:51.113Z,34.93
2022-11-05T22:32:19.561Z,32.93
2022-11-05T22:34:49.194Z,32.97
2022-11-05T22:37:17.391Z,33.53
2022-11-05T22:39:46.691Z,34.10
2022-11-05T22:42:14.696Z,31.30
2022-11-05T22:44:43.077Z,28.73
2022-11-05T22:47:11.101Z,33.43
2022-11-05T22:49:39.204Z,39.57
2022-11-05T22:52:07.818Z,30.80
2022-11-05T22:54:39.245Z,28.43
2022-11-05T22:57:09.146Z,28.53
2022-11-05T22:59:37.919Z,38.73
2022-11-05T23:02:09.904Z,28.20
2022-11-05T23:04:38.658Z,30.33
2022-11-05T23:07:27.918Z,27.13
2022-11-05T23:10:14.155Z,36.63
2022-11-05T23:12:44.722Z,39.10
2022-11-05T23:15:34.366Z,31.43
2022-11-05T23:18:20.421Z,38.27
2022-11-05T23:21:06.889Z,39.63
2022-11-05T23:23:52.421Z,36.93
2022-11-05T23:26:37.922Z,35.43
2022-11-05T23:29:07.210Z,43.90
2022-11-05T23:31:52.652Z,34.17
2022-11-05T23:34:20.631Z,33.37
2022-11-05T23:37:06.095Z,30.83
2022-11-05T23:39:39.637Z,26.30
2022-11-05T23:42:28.779Z,29.50
2022-11-05T23:45:16.064Z,34.60
2022-11-05T23:48:02.084Z,21.97
2022-11-05T23:50:35.664Z,27.63
2022-11-05T23:53:07.971Z,26.33
2022-11-05T23:55:36.294Z,25.53
2022-11-05T23:58:04.395Z,26.73
